Time;durP1;ratioP1;P1;durP2;ratioP2;P2;SDS_P1;SDS_P2;PMS_P1;PMS_P2;Temp;Humidity;BMP_temperature;BMP_pressure;BME280_temperature;BME280_humidity;BME280_pressure;Samples;Min_cycle;Max_cycle;Signal;HPM_P1;HPM_P2
2023/07/12 00:00:50;;;;;;;7.93;5.28;;;;;;;25.08;nan;62197.31;5030891;28;20525;-63
2023/07/12 00:03:17;;;;;;;6.15;5.03;;;;;;;24.99;nan;62200.69;5031213;28;20222;-62
2023/07/12 00:05:43;;;;;;;8.77;5.70;;;;;;;24.96;nan;62280.38;5031481;28;20201;-62
2023/07/12 00:08:18;;;;;;;7.85;5.25;;;;;;;24.70;nan;62248.66;5031220;28;20175;-61
2023/07/12 00:10:44;;;;;;;10.32;5.70;;;;;;;24.85;nan;62215.53;5031056;28;20174;-62
2023/07/12 00:13:10;;;;;;;7.68;5.07;;;;;;;24.90;nan;62423.13;5031709;28;20265;-61
2023/07/12 00:15:37;;;;;;;9.88;5.45;;;;;;;24.83;nan;62143.22;5031286;28;20175;-62
2023/07/12 00:18:04;;;;;;;10.00;5.80;;;;;;;24.79;nan;62159.56;5031139;28;20179;-62
2023/07/12 00:20:34;;;;;;;9.30;5.38;;;;;;;24.51;nan;62232.78;5031271;28;20210;-61
2023/07/12 00:23:00;;;;;;;8.52;5.32;;;;;;;24.63;nan;62196.25;5031446;28;20181;-61
2023/07/12 00:25:29;;;;;;;10.30;5.65;;;;;;;24.58;nan;62161.81;5031241;28;20164;-62
2023/07/12 00:27:55;;;;;;;10.95;5.70;;;;;;;24.34;nan;62071.78;5031609;28;20201;-62
2023/07/12 00:30:22;;;;;;;9.07;5.70;;;;;;;24.47;nan;62120.53;5031219;28;20607;-61
2023/07/12 00:32:49;;;;;;;8.20;5.30;;;;;;;24.33;nan;62060.75;5031267;28;20322;-62
2023/07/12 00:35:18;;;;;;;8.07;5.22;;;;;;;24.12;nan;62037.41;5031141;28;20175;-63
2023/07/12 00:37:44;;;;;;;7.15;4.97;;;;;;;24.36;nan;62134.72;5031683;28;20635;-61
2023/07/12 00:40:21;;;;;;;11.48;6.07;;;;;;;24.37;nan;62159.34;5035259;28;20203;-61
2023/07/12 00:42:54;;;;;;;9.57;5.65;;;;;;;24.02;nan;62039.09;5033878;28;20643;-62
2023/07/12 00:45:19;;;;;;;7.68;5.22;;;;;;;24.27;nan;62063.81;5034887;28;20206;-60
2023/07/12 00:47:45;;;;;;;8.05;5.20;;;;;;;23.97;nan;62095.50;5034799;28;20203;-61
2023/07/12 00:50:20;;;;;;;8.63;5.70;;;;;;;24.22;nan;62105.69;5034655;28;20172;-61
2023/07/12 00:52:46;;;;;;;8.70;5.80;;;;;;;24.14;nan;62052.75;5034638;28;20202;-62
2023/07/12 00:55:53;;;;;;;9.23;5.60;;;;;;;24.23;nan;62192.47;5034462;28;20570;-62
2023/07/12 00:58:19;;;;;;;6.18;5.20;;;;;;;24.26;nan;62165.09;5034334;28;20178;-62
2023/07/12 01:00:45;;;;;;;9.43;5.78;;;;;;;23.99;nan;62048.16;5033657;28;20262;-61
2023/07/12 01:03:12;;;;;;;9.10;5.35;;;;;;;23.95;nan;62033.19;5034887;28;20313;-60
2023/07/12 01:05:40;;;;;;;9.93;5.93;;;;;;;23.88;nan;62012.16;5034617;28;20176;-61
2023/07/12 01:08:06;;;;;;;6.43;4.90;;;;;;;23.39;nan;62082.75;5034454;28;20182;-61
2023/07/12 01:10:31;;;;;;;8.52;5.15;;;;;;;23.92;nan;62121.13;5034144;28;20606;-62
2023/07/12 01:12:56;;;;;;;8.60;5.63;;;;;;;23.92;nan;62046.00;5032878;28;20203;-61
2023/07/12 01:15:22;;;;;;;9.43;5.70;;;;;;;23.57;nan;62137.19;5034238;28;20175;-60
2023/07/12 01:17:48;;;;;;;9.88;5.80;;;;;;;23.79;nan;62093.84;5034282;28;20178;-62
2023/07/12 01:20:13;;;;;;;8.70;5.50;;;;;;;23.46;nan;61962.94;5034538;28;20171;-62
2023/07/12 01:22:39;;;;;;;8.63;5.95;;;;;;;23.53;nan;62143.06;5034523;28;20175;-62
2023/07/12 01:25:04;;;;;;;7.70;5.63;;;;;;;23.69;nan;62033.44;5034474;28;20180;-61
2023/07/12 01:27:30;;;;;;;9.82;6.10;;;;;;;23.43;nan;61998.06;5033895;28;20179;-61
2023/07/12 01:29:55;;;;;;;9.27;5.65;;;;;;;23.47;nan;62144.06;5033707;28;20207;-62
2023/07/12 01:32:21;;;;;;;9.93;5.50;;;;;;;23.64;nan;62014.13;5034215;28;20183;-62
2023/07/12 01:34:46;;;;;;;9.80;5.70;;;;;;;23.56;nan;62323.31;5034017;28;20175;-61
2023/07/12 01:37:12;;;;;;;8.95;5.72;;;;;;;23.40;nan;61955.53;5033710;28;20233;-61
2023/07/12 01:39:38;;;;;;;7.68;5.40;;;;;;;23.53;nan;62338.16;5033918;28;20172;-62
2023/07/12 01:42:04;;;;;;;9.40;5.80;;;;;;;23.68;nan;62036.94;5032467;28;20704;-62
2023/07/12 01:44:30;;;;;;;8.65;5.55;;;;;;;23.67;nan;62146.00;5031701;28;20244;-61
2023/07/12 01:46:56;;;;;;;7.35;5.32;;;;;;;23.70;nan;62015.75;5033529;28;20179;-62
2023/07/12 01:49:21;;;;;;;9.90;5.68;;;;;;;23.62;nan;61967.53;5033257;28;20602;-62
2023/07/12 01:51:49;;;;;;;8.98;5.70;;;;;;;23.88;nan;62043.47;5033053;28;20182;-62
2023/07/12 01:54:14;;;;;;;8.82;5.60;;;;;;;23.87;nan;62068.44;5032990;28;20233;-62
2023/07/12 01:56:39;;;;;;;9.75;5.80;;;;;;;23.61;nan;62013.34;5033556;28;20198;-63
2023/07/12 01:59:05;;;;;;;10.02;5.40;;;;;;;23.65;nan;62002.81;5032847;28;20253;-62
2023/07/12 02:01:30;;;;;;;8.75;5.68;;;;;;;23.89;nan;62032.16;5033146;28;20171;-61
2023/07/12 02:03:55;;;;;;;8.60;5.32;;;;;;;23.77;nan;62029.50;5033161;28;20615;-63
2023/07/12 02:06:21;;;;;;;8.93;5.72;;;;;;;23.28;nan;62205.81;5032791;28;20190;-62
2023/07/12 02:08:46;;;;;;;11.48;5.88;;;;;;;24.05;nan;62130.69;5033137;28;20167;-61
2023/07/12 02:11:12;;;;;;;8.70;5.82;;;;;;;23.68;nan;62180.47;5033150;28;20254;-61
2023/07/12 02:13:37;;;;;;;10.23;5.97;;;;;;;23.68;nan;62121.00;5031337;28;20195;-63
2023/07/12 02:16:03;;;;;;;8.55;5.63;;;;;;;23.70;nan;61985.00;5031923;28;20175;-65
2023/07/12 02:18:28;;;;;;;9.10;5.88;;;;;;;23.73;nan;62066.69;5033653;28;20259;-62
2023/07/12 02:20:54;;;;;;;11.10;6.55;;;;;;;23.67;nan;62059.88;5032191;28;20175;-62
2023/07/12 02:23:19;;;;;;;8.40;5.80;;;;;;;23.34;nan;61985.78;5033022;28;20174;-61
2023/07/12 02:25:45;;;;;;;8.75;5.90;;;;;;;23.66;nan;62074.41;5033347;28;20609;-61
2023/07/12 02:28:10;;;;;;;9.82;5.75;;;;;;;23.48;nan;61983.47;5032754;28;20250;-62
2023/07/12 02:30:37;;;;;;;9.82;6.13;;;;;;;23.37;nan;61942.25;5033461;28;20168;-61
2023/07/12 02:33:02;;;;;;;9.23;5.38;;;;;;;23.61;nan;62173.06;5032778;28;20724;-62
2023/07/12 02:35:29;;;;;;;9.25;5.53;;;;;;;23.67;nan;62018.13;5032907;28;20172;-63
2023/07/12 02:37:59;;;;;;;9.20;5.85;;;;;;;23.02;nan;62087.56;5032750;28;20176;-61
2023/07/12 02:40:26;;;;;;;11.30;5.75;;;;;;;23.39;nan;61965.41;5031315;28;20271;-62
2023/07/12 02:42:52;;;;;;;9.98;5.47;;;;;;;23.48;nan;62290.72;5031962;28;20258;-60
2023/07/12 02:45:17;;;;;;;9.65;4.93;;;;;;;23.52;nan;62068.88;5032509;28;20175;-60
2023/07/12 02:47:43;;;;;;;9.75;5.63;;;;;;;23.53;nan;62030.91;5033272;28;20175;-62
2023/07/12 02:50:09;;;;;;;10.00;5.53;;;;;;;23.59;nan;62113.38;5032930;28;20168;-63
2023/07/12 02:52:34;;;;;;;8.32;5.55;;;;;;;23.49;nan;62130.13;5032689;28;20238;-61
2023/07/12 02:55:00;;;;;;;9.88;5.47;;;;;;;23.48;nan;62012.16;5032342;28;20171;-61
2023/07/12 02:57:25;;;;;;;7.80;5.10;;;;;;;23.46;nan;62129.88;5031975;28;20187;-62
2023/07/12 02:59:51;;;;;;;7.57;5.13;;;;;;;23.65;nan;62125.44;5032680;28;20182;-61
2023/07/12 03:02:16;;;;;;;8.80;5.25;;;;;;;23.40;nan;61990.00;5031916;28;20171;-62
2023/07/12 03:04:42;;;;;;;6.85;5.07;;;;;;;23.73;nan;62121.50;5032300;28;20176;-62
2023/07/12 03:07:07;;;;;;;8.23;5.22;;;;;;;23.58;nan;62013.09;5032209;28;20179;-61
2023/07/12 03:09:33;;;;;;;9.48;5.50;;;;;;;23.85;nan;62058.34;5032296;28;20261;-60
2023/07/12 03:11:58;;;;;;;12.48;5.63;;;;;;;23.65;nan;62133.25;5031994;28;20542;-61
2023/07/12 03:14:24;;;;;;;9.60;5.40;;;;;;;24.09;nan;62143.09;5032119;28;20222;-62
2023/07/12 03:16:50;;;;;;;7.82;5.70;;;;;;;24.34;nan;62440.66;5032123;28;20225;-61
2023/07/12 03:19:16;;;;;;;8.35;5.35;;;;;;;24.76;nan;62190.16;5032094;28;20202;-61
2023/07/12 03:21:42;;;;;;;9.82;5.70;;;;;;;24.78;nan;62474.19;5032002;28;20609;-61
2023/07/12 03:24:09;;;;;;;7.57;5.30;;;;;;;24.95;nan;62213.88;5031817;28;20556;-63
2023/07/12 03:26:35;;;;;;;8.52;5.03;;;;;;;25.01;nan;62330.56;5031508;28;20179;-60
2023/07/12 03:29:01;;;;;;;8.90;5.28;;;;;;;25.25;nan;62281.53;5032166;28;20556;-62
2023/07/12 03:31:28;;;;;;;10.55;5.97;;;;;;;25.46;nan;62253.69;5031486;28;20172;-61
2023/07/12 03:33:55;;;;;;;9.00;5.50;;;;;;;25.90;nan;62363.56;5031502;28;20195;-63
2023/07/12 03:36:24;;;;;;;8.68;5.63;;;;;;;25.30;nan;62378.78;5031797;28;20179;-61
2023/07/12 03:38:50;;;;;;;9.48;6.05;;;;;;;26.43;nan;62406.66;5031385;28;20241;-62
2023/07/12 03:41:16;;;;;;;9.93;5.30;;;;;;;26.19;nan;62364.09;5031414;28;20187;-60
2023/07/12 03:43:41;;;;;;;9.50;5.28;;;;;;;26.58;nan;62436.91;5031567;28;20610;-63
2023/07/12 03:46:07;;;;;;;11.27;6.03;;;;;;;27.21;nan;62548.31;5031929;28;20182;-61
2023/07/12 03:48:33;;;;;;;13.23;5.70;;;;;;;27.42;nan;62550.19;5031599;28;20251;-61
2023/07/12 03:50:59;;;;;;;7.30;5.20;;;;;;;27.53;nan;62652.06;5031468;28;20221;-61
2023/07/12 03:53:26;;;;;;;9.45;5.93;;;;;;;27.93;nan;62590.13;5031434;28;20207;-61
2023/07/12 03:55:51;;;;;;;8.80;5.82;;;;;;;27.92;nan;62594.28;5031647;28;20233;-60
2023/07/12 03:58:21;;;;;;;10.15;5.47;;;;;;;28.63;nan;62715.91;5030384;28;20698;-61
2023/07/12 04:00:49;;;;;;;10.15;5.80;;;;;;;28.06;nan;62710.16;5030864;28;20219;-61
2023/07/12 04:03:16;;;;;;;10.02;5.18;;;;;;;28.92;nan;62746.53;5030940;28;20219;-62
2023/07/12 04:05:43;;;;;;;8.95;5.53;;;;;;;28.85;nan;62873.31;5031265;28;20183;-62
2023/07/12 04:08:11;;;;;;;8.70;5.35;;;;;;;28.58;nan;62752.28;5031351;28;20214;-61
2023/07/12 04:10:37;;;;;;;8.55;5.63;;;;;;;28.71;nan;62538.31;5031073;28;20248;-63
2023/07/12 04:13:03;;;;;;;11.52;5.50;;;;;;;29.20;nan;62812.84;5032172;28;20199;-62
2023/07/12 04:15:28;;;;;;;8.25;5.05;;;;;;;29.28;nan;62787.78;5035334;28;20182;-62
2023/07/12 04:17:54;;;;;;;9.38;5.50;;;;;;;29.31;nan;62812.34;5035443;28;20182;-61
2023/07/12 04:20:19;;;;;;;11.57;5.07;;;;;;;29.19;nan;62872.25;5035575;28;20705;-62
2023/07/12 04:22:49;;;;;;;9.43;5.88;;;;;;;28.99;nan;62759.84;5035027;28;20167;-62
2023/07/12 04:25:14;;;;;;;8.77;5.45;;;;;;;29.30;nan;63003.44;5035219;28;20176;-60
2023/07/12 04:27:40;;;;;;;9.05;5.25;;;;;;;29.40;nan;62804.22;5034782;28;20175;-61
2023/07/12 04:30:07;;;;;;;9.68;5.60;;;;;;;29.66;nan;62872.41;5035255;28;20583;-61
2023/07/12 04:32:33;;;;;;;8.85;5.50;;;;;;;29.71;nan;62620.47;5035371;28;20262;-61
2023/07/12 04:34:58;;;;;;;9.75;5.43;;;;;;;29.73;nan;62907.34;5035384;28;20267;-62
2023/07/12 04:37:24;;;;;;;7.65;5.55;;;;;;;29.71;nan;62602.03;5032250;28;20288;-62
2023/07/12 04:39:50;;;;;;;8.25;5.88;;;;;;;30.39;nan;63303.88;5025678;28;20639;-61
2023/07/12 04:42:15;;;;;;;9.77;5.60;;;;;;;30.72;nan;63072.19;5024024;28;20176;-60
2023/07/12 04:44:40;;;;;;;7.97;4.80;;;;;;;30.87;nan;63046.63;5024475;28;20671;-62
2023/07/12 04:47:07;;;;;;;8.93;5.32;;;;;;;30.55;nan;63071.69;5025444;28;20175;-62
2023/07/12 04:49:32;;;;;;;9.63;5.70;;;;;;;30.04;nan;63037.31;5033477;28;20171;-60
2023/07/12 04:51:58;;;;;;;9.80;5.53;;;;;;;30.50;nan;62920.81;5034122;28;20581;-58
2023/07/12 04:54:24;;;;;;;9.02;5.47;;;;;;;31.06;nan;63090.19;5034533;28;20198;-61
2023/07/12 04:56:49;;;;;;;9.98;6.10;;;;;;;30.86;nan;63069.81;5034005;28;20657;-60
2023/07/12 04:59:15;;;;;;;10.73;5.53;;;;;;;30.49;nan;63035.75;5033934;28;20646;-61
2023/07/12 05:01:41;;;;;;;11.25;6.03;;;;;;;30.47;nan;63027.63;5034517;28;20167;-58
2023/07/12 05:04:06;;;;;;;9.23;5.32;;;;;;;30.23;nan;63093.47;5033895;28;20582;-60
2023/07/12 05:06:32;;;;;;;10.60;5.38;;;;;;;29.76;nan;62992.50;5033984;28;20249;-59
2023/07/12 05:08:58;;;;;;;7.10;5.45;;;;;;;29.80;nan;62902.22;5034410;28;20183;-61
2023/07/12 05:11:23;;;;;;;10.32;6.28;;;;;;;30.57;nan;63065.47;5034409;28;20304;-61
2023/07/12 05:13:48;;;;;;;10.07;5.70;;;;;;;30.57;nan;63081.88;5032865;28;20595;-60
2023/07/12 05:16:14;;;;;;;8.00;5.45;;;;;;;30.57;nan;62934.13;5034063;28;20181;-61
2023/07/12 05:18:39;;;;;;;8.07;5.47;;;;;;;30.94;nan;63084.28;5034083;28;20179;-59
2023/07/12 05:21:05;;;;;;;10.32;5.47;;;;;;;31.28;nan;63167.19;5033690;28;20174;-60
2023/07/12 05:23:30;;;;;;;8.75;5.53;;;;;;;31.29;nan;63118.13;5032398;28;20197;-59
2023/07/12 05:25:56;;;;;;;8.15;5.40;;;;;;;31.58;nan;63204.94;5032571;28;20178;-60
2023/07/12 05:28:22;;;;;;;11.57;5.82;;;;;;;32.09;nan;63339.28;5034020;28;20170;-61
2023/07/12 05:30:48;;;;;;;8.57;5.63;;;;;;;32.26;nan;63390.66;5033871;28;20244;-63
2023/07/12 05:33:14;;;;;;;7.35;5.03;;;;;;;33.00;nan;63447.91;5033778;28;20187;-60
2023/07/12 05:35:40;;;;;;;10.43;5.68;;;;;;;33.43;nan;63475.78;5033540;28;20182;-59
2023/07/12 05:38:06;;;;;;;6.50;4.70;;;;;;;33.98;nan;63613.06;5033178;28;20193;-61
2023/07/12 05:40:32;;;;;;;8.43;5.50;;;;;;;34.55;nan;63728.91;5033998;28;20183;-62
2023/07/12 05:42:58;;;;;;;7.47;4.63;;;;;;;34.42;nan;63764.91;5032314;28;20187;-60
2023/07/12 05:45:25;;;;;;;8.02;5.40;;;;;;;33.35;nan;63487.75;5032797;28;20193;-60
2023/07/12 05:47:50;;;;;;;7.47;5.00;;;;;;;32.86;nan;63448.78;5033332;28;20228;-60
2023/07/12 05:50:17;;;;;;;7.22;5.20;;;;;;;32.18;nan;63325.28;5033386;28;20175;-60
2023/07/12 05:52:43;;;;;;;8.20;5.28;;;;;;;31.86;nan;63226.06;5033251;28;20269;-59
2023/07/12 05:55:10;;;;;;;9.23;5.72;;;;;;;31.58;nan;63232.91;5033083;28;20179;-59
2023/07/12 05:57:36;;;;;;;9.23;5.53;;;;;;;30.82;nan;63170.22;5032456;28;20563;-61
2023/07/12 06:00:03;;;;;;;10.35;5.32;;;;;;;31.19;nan;63128.34;5032768;28;20262;-59
2023/07/12 06:02:29;;;;;;;7.60;5.43;;;;;;;31.49;nan;63170.78;5032637;28;20182;-59
2023/07/12 06:04:55;;;;;;;9.15;5.38;;;;;;;31.80;nan;63184.78;5032937;28;20293;-60
2023/07/12 06:07:20;;;;;;;9.10;5.30;;;;;;;31.91;nan;63242.38;5065412;28;20209;-60
2023/07/12 06:09:46;;;;;;;8.80;5.03;;;;;;;31.93;nan;63199.75;5032925;28;20183;-61
2023/07/12 06:12:11;;;;;;;8.98;5.18;;;;;;;31.61;nan;63262.78;5033354;28;20638;-59
2023/07/12 06:14:37;;;;;;;7.75;5.25;;;;;;;31.61;nan;63167.63;5032931;28;20202;-58
2023/07/12 06:17:04;;;;;;;10.70;6.00;;;;;;;31.50;nan;63137.56;5032964;28;20175;-59
2023/07/12 06:19:30;;;;;;;8.50;5.60;;;;;;;31.91;nan;63233.88;5012998;28;20167;-59
2023/07/12 06:21:55;;;;;;;8.38;5.40;;;;;;;31.85;nan;63303.66;5013479;28;20172;-62
2023/07/12 06:24:21;;;;;;;7.93;4.93;;;;;;;31.89;nan;63528.38;5012987;28;20528;-60
2023/07/12 06:26:46;;;;;;;7.75;5.30;;;;;;;31.89;nan;63277.13;5013593;28;20164;-62
2023/07/12 06:29:12;;;;;;;8.38;5.53;;;;;;;31.92;nan;63240.31;5012835;28;20172;-60
2023/07/12 06:31:38;;;;;;;9.57;5.40;;;;;;;32.24;nan;63496.84;5012999;28;20250;-61
2023/07/12 06:34:03;;;;;;;9.00;5.20;;;;;;;31.80;nan;63309.06;5012612;28;20272;-60
2023/07/12 06:36:30;;;;;;;7.95;4.97;;;;;;;31.92;nan;63348.75;5027330;28;20657;-64
2023/07/12 06:38:56;;;;;;;10.15;5.00;;;;;;;32.03;nan;63290.03;5032012;28;20187;-60
2023/07/12 06:41:22;;;;;;;8.40;5.10;;;;;;;31.77;nan;63238.94;5032797;28;20171;-60
2023/07/12 06:43:48;;;;;;;6.30;4.70;;;;;;;32.52;nan;63584.25;5032746;28;20191;-61
2023/07/12 06:46:14;;;;;;;7.78;5.25;;;;;;;32.70;nan;63313.78;5032239;28;20174;-62
2023/07/12 06:48:39;;;;;;;10.35;5.53;;;;;;;32.31;nan;63293.22;5031894;28;20163;-59
2023/07/12 06:51:05;;;;;;;11.27;5.20;;;;;;;32.24;nan;63287.22;5032638;28;20616;-62
2023/07/12 06:53:30;;;;;;;6.75;4.78;;;;;;;32.37;nan;63419.22;5032131;28;20654;-60
2023/07/12 06:55:56;;;;;;;8.73;4.97;;;;;;;32.73;nan;63401.41;5031166;28;20201;-61
2023/07/12 06:58:22;;;;;;;6.85;4.72;;;;;;;32.69;nan;63445.06;5032144;28;20179;-65
2023/07/12 07:00:47;;;;;;;10.88;4.90;;;;;;;32.67;nan;63463.91;5031646;28;20228;-60
2023/07/12 07:03:14;;;;;;;6.78;4.88;;;;;;;32.81;nan;63490.09;5032097;28;20258;-61
2023/07/12 07:05:42;;;;;;;8.52;5.43;;;;;;;29.96;nan;63049.22;5032407;28;20173;-60
2023/07/12 07:08:07;;;;;;;6.70;4.53;;;;;;;32.86;nan;63374.63;5032207;28;20233;-62
2023/07/12 07:10:33;;;;;;;10.45;4.80;;;;;;;33.17;nan;63481.38;5032307;28;20175;-61
2023/07/12 07:12:59;;;;;;;8.35;5.35;;;;;;;33.03;nan;63390.41;5031991;28;20202;-61
2023/07/12 07:15:25;;;;;;;7.40;4.80;;;;;;;33.10;nan;63566.03;5032040;28;20175;-61
2023/07/12 07:17:50;;;;;;;9.43;5.45;;;;;;;33.01;nan;63457.00;5031372;28;20218;-62
2023/07/12 07:20:16;;;;;;;7.07;4.88;;;;;;;33.08;nan;63425.91;5031788;28;20194;-60
2023/07/12 07:22:41;;;;;;;7.95;5.03;;;;;;;33.13;nan;63545.06;5031954;28;20171;-60
2023/07/12 07:25:07;;;;;;;6.38;4.35;;;;;;;33.06;nan;63460.72;5032188;28;20246;-63
2023/07/12 07:27:32;;;;;;;8.25;4.95;;;;;;;33.01;nan;63436.38;5031806;28;20174;-59
2023/07/12 07:29:58;;;;;;;8.25;4.50;;;;;;;32.94;nan;63433.03;5031730;28;20220;-59
2023/07/12 07:32:23;;;;;;;7.85;4.40;;;;;;;32.93;nan;63514.56;5031135;28;20167;-60
2023/07/12 07:34:48;;;;;;;6.40;4.53;;;;;;;33.09;nan;63506.56;5031492;28;20187;-59
2023/07/12 07:37:14;;;;;;;6.20;4.43;;;;;;;32.98;nan;63395.81;5032042;28;20170;-62
2023/07/12 07:39:40;;;;;;;8.93;4.82;;;;;;;33.40;nan;63562.47;5031558;28;20261;-61
2023/07/12 07:42:06;;;;;;;5.93;4.30;;;;;;;33.30;nan;63577.97;5031533;28;20186;-60
2023/07/12 07:44:32;;;;;;;8.80;4.70;;;;;;;33.58;nan;63577.97;5031664;28;20174;-63
2023/07/12 07:46:58;;;;;;;8.50;4.95;;;;;;;33.57;nan;63653.72;5031336;28;20186;-64
2023/07/12 07:49:23;;;;;;;6.47;4.60;;;;;;;33.96;nan;63616.06;5031636;28;20175;-59
2023/07/12 07:51:49;;;;;;;6.90;4.40;;;;;;;33.68;nan;63571.56;5031864;28;20171;-60
2023/07/12 07:54:14;;;;;;;9.77;5.20;;;;;;;33.58;nan;63535.53;5031679;28;20297;-61
2023/07/12 07:56:41;;;;;;;11.00;5.47;;;;;;;33.71;nan;63622.22;5031777;28;20174;-60
2023/07/12 07:59:07;;;;;;;7.68;5.10;;;;;;;33.45;nan;63578.84;5031601;28;20205;-61
2023/07/12 08:01:32;;;;;;;9.68;4.80;;;;;;;33.84;nan;63671.75;5031513;28;20174;-60
2023/07/12 08:03:58;;;;;;;12.10;5.70;;;;;;;34.23;nan;63683.88;5031429;28;20226;-61
2023/07/12 08:06:23;;;;;;;7.10;4.57;;;;;;;34.31;nan;63699.06;5031598;28;20552;-61
2023/07/12 08:08:49;;;;;;;7.95;5.00;;;;;;;34.33;nan;63664.19;5031448;28;20174;-59
2023/07/12 08:11:15;;;;;;;13.13;4.97;;;;;;;34.13;nan;63784.34;5031826;28;20167;-60
2023/07/12 08:13:40;;;;;;;9.90;4.80;;;;;;;33.87;nan;63608.88;5031236;28;20571;-59
2023/07/12 08:16:05;;;;;;;7.80;4.80;;;;;;;34.17;nan;63640.94;5031209;28;20258;-60
2023/07/12 08:18:31;;;;;;;8.38;5.00;;;;;;;34.34;nan;63914.94;5031557;28;20163;-61
2023/07/12 08:20:57;;;;;;;7.47;4.65;;;;;;;31.86;nan;63260.44;5031814;28;20605;-61
2023/07/12 08:23:23;;;;;;;8.38;4.90;;;;;;;33.80;nan;63595.50;5031520;28;20209;-57
2023/07/12 08:25:52;;;;;;;10.13;6.00;;;;;;;34.19;nan;63703.16;5031287;28;20179;-59
2023/07/12 08:28:17;;;;;;;10.25;5.32;;;;;;;34.04;nan;63598.75;5031438;28;20183;-61
2023/07/12 08:30:43;;;;;;;9.82;5.22;;;;;;;34.15;nan;63750.09;5031330;28;20638;-60
2023/07/12 08:33:08;;;;;;;6.97;4.95;;;;;;;34.18;nan;63811.41;5031546;28;20206;-59
2023/07/12 08:35:34;;;;;;;13.52;6.57;;;;;;;34.25;nan;63721.31;5031451;28;20228;-59
2023/07/12 08:37:59;;;;;;;8.90;5.93;;;;;;;34.59;nan;63738.84;5031655;28;20170;-59
2023/07/12 08:40:27;;;;;;;8.00;5.03;;;;;;;34.25;nan;63582.69;5031438;28;20179;-60
2023/07/12 08:42:52;;;;;;;6.90;4.63;;;;;;;34.51;nan;63711.00;5031391;28;20173;-59
2023/07/12 08:45:20;;;;;;;7.20;4.85;;;;;;;34.51;nan;63764.69;5031250;28;20628;-60
2023/07/12 08:47:48;;;;;;;9.35;5.10;;;;;;;34.68;nan;63645.69;5031552;28;20203;-61
2023/07/12 08:50:16;;;;;;;12.45;5.78;;;;;;;34.42;nan;63679.91;5031461;28;20171;-60
2023/07/12 08:52:44;;;;;;;9.55;5.60;;;;;;;34.51;nan;63673.81;5031100;28;20519;-62
2023/07/12 08:55:18;;;;;;;10.98;6.75;;;;;;;34.44;nan;63787.88;5031495;28;20167;-59
2023/07/12 08:57:45;;;;;;;9.02;5.78;;;;;;;34.43;nan;63717.66;5030698;28;20593;-61
2023/07/12 09:00:24;;;;;;;9.35;5.30;;;;;;;34.13;nan;63822.09;5033086;28;20555;-59
2023/07/12 09:02:49;;;;;;;7.47;5.18;;;;;;;34.64;nan;63707.44;5034625;28;20233;-59
2023/07/12 09:05:18;;;;;;;10.23;5.60;;;;;;;34.54;nan;63679.94;5034588;28;20739;-61
2023/07/12 09:08:11;;;;;;;9.38;5.53;;;;;;;34.95;nan;63822.53;5034401;28;20171;-61
2023/07/12 09:10:41;;;;;;;7.38;5.20;;;;;;;34.72;nan;63801.19;5035087;28;20209;-59
2023/07/12 09:13:10;;;;;;;8.10;5.22;;;;;;;34.69;nan;63665.44;5033527;28;20206;-60
2023/07/12 09:15:38;;;;;;;6.20;5.07;;;;;;;34.93;nan;63804.84;5034838;28;20166;-60
2023/07/12 09:18:09;;;;;;;8.23;4.93;;;;;;;35.02;nan;63786.03;5034403;28;20175;-61
2023/07/12 09:20:39;;;;;;;7.22;4.75;;;;;;;35.15;nan;63818.53;5035293;28;20167;-59
2023/07/12 09:23:10;;;;;;;8.88;4.63;;;;;;;34.99;nan;63792.63;5034119;28;20182;-60
2023/07/12 09:25:38;;;;;;;6.85;4.72;;;;;;;34.97;nan;63841.38;5034782;28;20170;-61
2023/07/12 09:28:05;;;;;;;6.65;4.45;;;;;;;35.19;nan;63839.72;5034639;28;20182;-60
2023/07/12 09:30:32;;;;;;;6.25;4.32;;;;;;;35.06;nan;63811.34;5033645;28;20264;-61
2023/07/12 09:32:58;;;;;;;5.40;4.53;;;;;;;34.93;nan;63798.94;5034252;28;20195;-61
2023/07/12 09:35:38;;;;;;;8.38;4.97;;;;;;;35.30;nan;63846.59;5033699;28;20576;-61
2023/07/12 09:38:10;;;;;;;8.90;5.85;;;;;;;34.95;nan;63831.09;5034771;28;20167;-61
2023/07/12 09:40:42;;;;;;;8.25;5.95;;;;;;;34.98;nan;63849.94;5033961;28;20179;-60
2023/07/12 09:43:21;;;;;;;9.15;5.57;;;;;;;35.26;nan;63903.13;5033856;28;20183;-60
2023/07/12 09:46:11;;;;;;;8.15;5.13;;;;;;;35.31;nan;63851.00;5033816;28;20201;-59
2023/07/12 09:48:51;;;;;;;10.50;5.20;;;;;;;35.18;nan;63893.84;5033954;28;20190;-61
2023/07/12 09:51:45;;;;;;;7.63;5.25;;;;;;;35.12;nan;63961.88;5034053;28;20183;-61
2023/07/12 09:54:32;;;;;;;8.60;5.63;;;;;;;35.40;nan;63937.97;5033615;28;20217;-60
2023/07/12 09:57:15;;;;;;;10.02;5.45;;;;;;;35.31;nan;63890.31;5033751;28;20183;-61
2023/07/12 09:59:54;;;;;;;8.80;5.57;;;;;;;35.38;nan;63964.91;5033890;28;20233;-61
2023/07/12 10:02:27;;;;;;;10.13;6.20;;;;;;;35.72;nan;63953.28;5033616;28;20715;-60
2023/07/12 10:05:02;;;;;;;7.22;5.15;;;;;;;35.29;nan;64087.44;5032376;28;20190;-61
2023/07/12 10:07:37;;;;;;;7.15;5.10;;;;;;;35.48;nan;63902.03;5032091;28;20174;-61
2023/07/12 10:10:08;;;;;;;7.75;5.03;;;;;;;;;;5032075;28;20182;-60
2023/07/12 10:12:43;;;;;;;10.00;4.97;;;;;;;35.39;nan;63891.59;5030743;28;20174;-61
2023/07/12 10:15:11;;;;;;;7.57;4.95;;;;;;;35.72;nan;63969.84;5033033;28;20163;-59
2023/07/12 10:17:40;;;;;;;8.27;4.90;;;;;;;35.71;nan;63891.50;5032191;28;20179;-60
2023/07/12 10:20:13;;;;;;;7.38;4.82;;;;;;;35.49;nan;64030.91;5032077;28;20175;-62
2023/07/12 10:22:41;;;;;;;6.55;4.53;;;;;;;35.84;nan;63991.75;5033071;28;20163;-62
2023/07/12 10:25:21;;;;;;;8.23;4.78;;;;;;;35.87;nan;64010.63;5032718;28;20182;-61
2023/07/12 10:27:59;;;;;;;6.47;4.80;;;;;;;35.87;nan;63922.78;5032713;28;20163;-61
2023/07/12 10:30:26;;;;;;;8.35;4.13;;;;;;;35.94;nan;64028.81;5032087;28;20546;-59
2023/07/12 10:33:17;;;;;;;7.90;5.00;;;;;;;35.69;nan;64005.69;5032402;28;20676;-60
2023/07/12 10:35:49;;;;;;;8.07;4.82;;;;;;;35.94;nan;64180.56;5032080;28;20667;-59
2023/07/12 10:38:17;;;;;;;6.43;4.30;;;;;;;36.23;nan;64105.16;5032706;28;20177;-61
2023/07/12 10:40:49;;;;;;;6.93;4.50;;;;;;;36.26;nan;64039.97;5032248;28;20177;-61
2023/07/12 10:43:39;;;;;;;5.38;3.90;;;;;;;36.41;nan;64123.44;5031868;28;20209;-61
2023/07/12 10:46:18;;;;;;;11.35;4.38;;;;;;;36.39;nan;64075.81;5032537;28;20171;-61
2023/07/12 10:48:49;;;;;;;10.27;4.35;;;;;;;36.10;nan;64013.38;5031189;28;20178;-59
2023/07/12 10:51:26;;;;;;;7.28;4.63;;;;;;;36.50;nan;64109.91;5031164;28;20175;-59
2023/07/12 10:53:54;;;;;;;7.13;4.22;;;;;;;36.50;nan;64147.22;5032049;28;20197;-58
2023/07/12 10:56:33;;;;;;;6.40;4.75;;;;;;;35.93;nan;64038.91;5031934;28;20174;-60
2023/07/12 10:59:02;;;;;;;7.43;4.82;;;;;;;36.41;nan;64016.28;5032248;28;20163;-60
2023/07/12 11:01:43;;;;;;;5.55;4.30;;;;;;;36.58;nan;64166.63;5031423;28;20599;-60
2023/07/12 11:04:22;;;;;;;7.05;4.40;;;;;;;36.39;nan;64184.47;5032175;28;20682;-59
2023/07/12 11:07:00;;;;;;;7.80;4.82;;;;;;;36.66;nan;64136.53;5032232;28;20170;-59
2023/07/12 11:09:46;;;;;;;6.07;4.45;;;;;;;36.66;nan;64187.19;5032419;28;20189;-61
2023/07/12 11:12:45;;;;;;;8.70;4.90;;;;;;;36.55;nan;64142.38;5011479;28;20217;-60
2023/07/12 11:15:24;;;;;;;9.02;4.35;;;;;;;36.72;nan;64119.53;5028998;28;20277;-62
2023/07/12 11:18:03;;;;;;;6.43;4.38;;;;;;;36.80;nan;64192.25;5032626;28;20191;-60
2023/07/12 11:20:53;;;;;;;7.18;4.60;;;;;;;36.88;nan;64190.28;5032823;28;20175;-61
2023/07/12 11:23:28;;;;;;;7.65;5.43;;;;;;;36.62;nan;64107.34;5032128;28;20182;-59
2023/07/12 11:26:15;;;;;;;7.57;4.88;;;;;;;36.70;nan;64303.22;5031784;28;20564;-61
2023/07/12 11:28:43;;;;;;;7.70;4.72;;;;;;;36.61;nan;64040.13;5032031;28;20182;-57
2023/07/12 11:31:26;;;;;;;10.57;4.63;;;;;;;36.74;nan;64142.59;5031612;28;20174;-58
2023/07/12 11:34:00;;;;;;;8.77;4.45;;;;;;;36.85;nan;64181.47;5031974;28;20676;-64
2023/07/12 11:36:31;;;;;;;7.95;4.85;;;;;;;36.60;nan;64126.31;5032192;28;20182;-62
2023/07/12 11:38:59;;;;;;;8.98;5.18;;;;;;;36.72;nan;63535.81;5032405;28;20183;-59
2023/07/12 11:41:26;;;;;;;9.48;5.45;;;;;;;37.00;nan;64162.16;5032181;28;20241;-62
2023/07/12 11:44:18;;;;;;;9.50;4.88;;;;;;;37.07;nan;64247.69;5032054;28;20258;-62
2023/07/12 11:46:43;;;;;;;9.10;5.65;;;;;;;36.93;nan;64252.13;5029738;28;20274;-61
2023/07/12 11:49:21;;;;;;;9.02;5.60;;;;;;;37.04;nan;64193.50;5031922;28;20258;-60
2023/07/12 11:51:51;;;;;;;8.23;5.07;;;;;;;37.15;nan;64296.44;5031362;28;20268;-63
2023/07/12 11:54:34;;;;;;;8.52;4.93;;;;;;;36.98;nan;64285.19;5031355;28;20249;-59